sensor_id;sensor_type;location;lat;lon;timestamp;pressure;altitude;pressure_sealevel;temperature;humidity
51053;BME280;37093;37.716;-122.060;2022-07-30T00:00:38;99495.19;;;28.01;29.60
51053;BME280;37093;37.716;-122.060;2022-07-30T00:03:07;99498.35;;;27.38;31.07
51053;BME280;37093;37.716;-122.060;2022-07-30T00:05:35;99496.84;;;27.99;30.26
51053;BME280;37093;37.716;-122.060;2022-07-30T00:08:04;99499.60;;;27.57;30.15
51053;BME280;37093;37.716;-122.060;2022-07-30T00:10:32;99503.45;;;27.81;30.25
51053;BME280;37093;37.716;-122.060;2022-07-30T00:13:00;99503.69;;;27.54;30.35
51053;BME280;37093;37.716;-122.060;2022-07-30T00:15:30;99505.17;;;27.75;30.41
51053;BME280;37093;37.716;-122.060;2022-07-30T00:17:58;99507.03;;;27.88;30.29
51053;BME280;37093;37.716;-122.060;2022-07-30T00:20:28;99504.46;;;27.93;29.98
51053;BME280;37093;37.716;-122.060;2022-07-30T00:22:57;99508.77;;;27.68;30.63
51053;BME280;37093;37.716;-122.060;2022-07-30T00:25:25;99501.19;;;27.84;30.03
51053;BME280;37093;37.716;-122.060;2022-07-30T00:27:53;99500.97;;;27.59;30.21
51053;BME280;37093;37.716;-122.060;2022-07-30T00:30:22;99504.07;;;27.85;30.14
51053;BME280;37093;37.716;-122.060;2022-07-30T00:32:50;99500.84;;;27.56;30.65
51053;BME280;37093;37.716;-122.060;2022-07-30T00:35:19;99502.57;;;27.41;30.56
51053;BME280;37093;37.716;-122.060;2022-07-30T00:37:47;99502.89;;;27.34;30.84
51053;BME280;37093;37.716;-122.060;2022-07-30T00:40:16;99501.11;;;26.97;30.94
51053;BME280;37093;37.716;-122.060;2022-07-30T00:42:46;99502.38;;;27.00;31.23
51053;BME280;37093;37.716;-122.060;2022-07-30T00:45:16;99506.81;;;26.67;31.83
51053;BME280;37093;37.716;-122.060;2022-07-30T00:47:45;99503.83;;;27.26;31.41
51053;BME280;37093;37.716;-122.060;2022-07-30T00:50:14;99506.75;;;26.77;31.65
51053;BME280;37093;37.716;-122.060;2022-07-30T00:52:43;99510.57;;;27.02;31.74
51053;BME280;37093;37.716;-122.060;2022-07-30T00:55:12;99514.00;;;26.77;31.54
51053;BME280;37093;37.716;-122.060;2022-07-30T00:57:42;99518.50;;;26.80;31.66
51053;BME280;37093;37.716;-122.060;2022-07-30T01:00:14;99519.53;;;26.78;31.46
51053;BME280;37093;37.716;-122.060;2022-07-30T01:02:43;99526.82;;;26.81;31.49
51053;BME280;37093;37.716;-122.060;2022-07-30T01:05:11;99525.26;;;26.61;31.61
51053;BME280;37093;37.716;-122.060;2022-07-30T01:07:40;99528.46;;;26.93;31.70
51053;BME280;37093;37.716;-122.060;2022-07-30T01:10:10;99525.36;;;27.04;31.65
51053;BME280;37093;37.716;-122.060;2022-07-30T01:12:39;99523.39;;;26.72;31.68
51053;BME280;37093;37.716;-122.060;2022-07-30T01:15:09;99527.61;;;26.47;32.22
51053;BME280;37093;37.716;-122.060;2022-07-30T01:17:39;99529.20;;;26.44;32.19
51053;BME280;37093;37.716;-122.060;2022-07-30T01:20:10;99528.15;;;25.83;32.45
51053;BME280;37093;37.716;-122.060;2022-07-30T01:22:49;99525.76;;;26.12;32.54
51053;BME280;37093;37.716;-122.060;2022-07-30T01:28:03;99525.34;;;26.01;32.90
51053;BME280;37093;37.716;-122.060;2022-07-30T01:30:37;99529.92;;;26.22;32.64
51053;BME280;37093;37.716;-122.060;2022-07-30T01:33:09;99530.74;;;26.02;32.77
51053;BME280;37093;37.716;-122.060;2022-07-30T01:35:40;99530.49;;;25.37;33.76
51053;BME280;37093;37.716;-122.060;2022-07-30T01:38:11;99536.50;;;25.78;33.21
51053;BME280;37093;37.716;-122.060;2022-07-30T01:40:41;99536.25;;;25.20;34.07
51053;BME280;37093;37.716;-122.060;2022-07-30T01:43:11;99537.34;;;25.01;34.26
51053;BME280;37093;37.716;-122.060;2022-07-30T01:45:40;99540.12;;;24.88;35.04
51053;BME280;37093;37.716;-122.060;2022-07-30T01:48:11;99536.40;;;25.14;34.28
51053;BME280;37093;37.716;-122.060;2022-07-30T01:50:44;99537.59;;;25.27;34.00
51053;BME280;37093;37.716;-122.060;2022-07-30T01:53:16;99538.72;;;25.23;34.43
51053;BME280;37093;37.716;-122.060;2022-07-30T01:55:46;99544.99;;;25.24;34.55
51053;BME280;37093;37.716;-122.060;2022-07-30T01:58:18;99544.90;;;25.10;34.34
51053;BME280;37093;37.716;-122.060;2022-07-30T02:00:48;99545.26;;;25.14;34.52
51053;BME280;37093;37.716;-122.060;2022-07-30T02:03:18;99546.65;;;25.30;34.49
51053;BME280;37093;37.716;-122.060;2022-07-30T02:05:54;99549.43;;;25.27;34.61
51053;BME280;37093;37.716;-122.060;2022-07-30T02:08:31;99555.69;;;25.35;34.33
51053;BME280;37093;37.716;-122.060;2022-07-30T02:11:05;99563.79;;;25.46;34.62
51053;BME280;37093;37.716;-122.060;2022-07-30T02:13:38;99567.53;;;25.11;34.83
51053;BME280;37093;37.716;-122.060;2022-07-30T02:16:14;99569.05;;;24.94;35.14
51053;BME280;37093;37.716;-122.060;2022-07-30T02:18:49;99572.75;;;24.66;35.69
51053;BME280;37093;37.716;-122.060;2022-07-30T02:21:20;99579.32;;;24.57;35.66
51053;BME280;37093;37.716;-122.060;2022-07-30T02:23:49;99582.17;;;24.97;35.83
51053;BME280;37093;37.716;-122.060;2022-07-30T02:26:23;99586.36;;;24.71;35.80
51053;BME280;37093;37.716;-122.060;2022-07-30T02:28:55;99589.06;;;24.65;36.13
51053;BME280;37093;37.716;-122.060;2022-07-30T02:31:26;99593.90;;;24.84;35.82
51053;BME280;37093;37.716;-122.060;2022-07-30T02:33:58;99597.67;;;24.62;35.71
51053;BME280;37093;37.716;-122.060;2022-07-30T02:36:29;99597.02;;;24.65;35.82
51053;BME280;37093;37.716;-122.060;2022-07-30T02:39:00;99597.07;;;24.51;35.69
51053;BME280;37093;37.716;-122.060;2022-07-30T02:41:31;99591.00;;;24.18;36.39
51053;BME280;37093;37.716;-122.060;2022-07-30T02:44:00;99589.31;;;24.41;36.34
51053;BME280;37093;37.716;-122.060;2022-07-30T02:46:30;99589.50;;;23.83;36.57
51053;BME280;37093;37.716;-122.060;2022-07-30T02:48:58;99594.22;;;24.22;35.94
51053;BME280;37093;37.716;-122.060;2022-07-30T02:51:29;99594.38;;;24.12;36.63
51053;BME280;37093;37.716;-122.060;2022-07-30T02:53:58;99594.99;;;24.06;36.32
51053;BME280;37093;37.716;-122.060;2022-07-30T02:56:28;99598.17;;;23.83;36.75
51053;BME280;37093;37.716;-122.060;2022-07-30T02:58:58;99598.55;;;23.85;37.09
51053;BME280;37093;37.716;-122.060;2022-07-30T03:01:31;99601.56;;;23.98;37.09
51053;BME280;37093;37.716;-122.060;2022-07-30T03:04:02;99602.87;;;24.27;37.09
51053;BME280;37093;37.716;-122.060;2022-07-30T03:06:31;99604.81;;;23.77;37.01
51053;BME280;37093;37.716;-122.060;2022-07-30T03:09:02;99606.98;;;23.86;36.80
51053;BME280;37093;37.716;-122.060;2022-07-30T03:11:32;99605.95;;;23.94;36.72
51053;BME280;37093;37.716;-122.060;2022-07-30T03:14:01;99606.99;;;24.23;36.76
51053;BME280;37093;37.716;-122.060;2022-07-30T03:16:31;99607.83;;;23.88;36.76
51053;BME280;37093;37.716;-122.060;2022-07-30T03:19:07;99608.61;;;23.90;36.64
51053;BME280;37093;37.716;-122.060;2022-07-30T03:21:37;99611.47;;;23.90;37.11
51053;BME280;37093;37.716;-122.060;2022-07-30T03:24:08;99610.13;;;23.88;37.18
51053;BME280;37093;37.716;-122.060;2022-07-30T03:26:40;99611.19;;;23.55;37.13
51053;BME280;37093;37.716;-122.060;2022-07-30T03:29:10;99614.82;;;23.77;36.98
51053;BME280;37093;37.716;-122.060;2022-07-30T03:31:40;99616.99;;;23.68;36.85
51053;BME280;37093;37.716;-122.060;2022-07-30T03:34:10;99620.80;;;23.76;36.73
51053;BME280;37093;37.716;-122.060;2022-07-30T03:36:39;99624.65;;;23.61;36.90
51053;BME280;37093;37.716;-122.060;2022-07-30T03:39:07;99626.74;;;23.91;37.12
51053;BME280;37093;37.716;-122.060;2022-07-30T03:41:37;99627.77;;;23.68;37.10
51053;BME280;37093;37.716;-122.060;2022-07-30T03:44:07;99628.45;;;23.57;37.17
51053;BME280;37093;37.716;-122.060;2022-07-30T03:46:36;99622.42;;;23.67;37.34
51053;BME280;37093;37.716;-122.060;2022-07-30T03:49:05;99624.01;;;23.19;37.95
51053;BME280;37093;37.716;-122.060;2022-07-30T03:51:34;99620.95;;;22.89;38.59
51053;BME280;37093;37.716;-122.060;2022-07-30T03:54:03;99623.09;;;23.14;38.22
51053;BME280;37093;37.716;-122.060;2022-07-30T03:56:33;99625.43;;;22.98;37.82
51053;BME280;37093;37.716;-122.060;2022-07-30T03:59:02;99628.61;;;22.97;38.12
51053;BME280;37093;37.716;-122.060;2022-07-30T04:01:31;99634.68;;;23.39;37.95
51053;BME280;37093;37.716;-122.060;2022-07-30T04:04:04;99634.65;;;23.18;37.87
51053;BME280;37093;37.716;-122.060;2022-07-30T04:06:33;99641.30;;;22.82;38.76
51053;BME280;37093;37.716;-122.060;2022-07-30T04:09:01;99641.81;;;22.78;38.66
51053;BME280;37093;37.716;-122.060;2022-07-30T04:11:29;99643.70;;;22.36;39.21
51053;BME280;37093;37.716;-122.060;2022-07-30T04:13:58;99641.29;;;22.30;39.15
51053;BME280;37093;37.716;-122.060;2022-07-30T04:16:33;99642.67;;;22.64;39.29
51053;BME280;37093;37.716;-122.060;2022-07-30T04:19:04;99640.45;;;22.00;40.25
51053;BME280;37093;37.716;-122.060;2022-07-30T04:21:35;99640.88;;;22.18;39.97
51053;BME280;37093;37.716;-122.060;2022-07-30T04:24:05;99644.04;;;22.29;39.32
51053;BME280;37093;37.716;-122.060;2022-07-30T04:26:36;99645.65;;;22.77;38.68
51053;BME280;37093;37.716;-122.060;2022-07-30T04:29:07;99641.73;;;22.79;38.72
51053;BME280;37093;37.716;-122.060;2022-07-30T04:31:36;99640.05;;;22.61;39.01
51053;BME280;37093;37.716;-122.060;2022-07-30T04:34:05;99646.26;;;22.47;39.43
51053;BME280;37093;37.716;-122.060;2022-07-30T04:36:34;99654.82;;;22.79;39.54
51053;BME280;37093;37.716;-122.060;2022-07-30T04:39:03;99659.71;;;22.16;39.51
51053;BME280;37093;37.716;-122.060;2022-07-30T04:41:31;99664.91;;;22.36;39.01
51053;BME280;37093;37.716;-122.060;2022-07-30T04:43:59;99662.28;;;22.34;39.19
51053;BME280;37093;37.716;-122.060;2022-07-30T04:46:29;99659.66;;;22.50;39.37
51053;BME280;37093;37.716;-122.060;2022-07-30T04:48:57;99660.65;;;22.21;39.27
51053;BME280;37093;37.716;-122.060;2022-07-30T04:51:28;99662.22;;;22.19;39.28
51053;BME280;37093;37.716;-122.060;2022-07-30T04:53:59;99662.62;;;22.42;39.56
51053;BME280;37093;37.716;-122.060;2022-07-30T04:56:30;99660.33;;;22.17;40.18
51053;BME280;37093;37.716;-122.060;2022-07-30T04:59:01;99659.33;;;22.25;39.95
51053;BME280;37093;37.716;-122.060;2022-07-30T05:01:34;99661.54;;;21.77;39.91
51053;BME280;37093;37.716;-122.060;2022-07-30T05:04:03;99661.66;;;22.21;40.33
51053;BME280;37093;37.716;-122.060;2022-07-30T05:06:33;99660.93;;;22.10;40.05
51053;BME280;37093;37.716;-122.060;2022-07-30T05:09:02;99664.50;;;21.89;40.95
51053;BME280;37093;37.716;-122.060;2022-07-30T05:11:30;99660.21;;;21.98;40.70
51053;BME280;37093;37.716;-122.060;2022-07-30T05:13:59;99662.98;;;21.81;40.75
51053;BME280;37093;37.716;-122.060;2022-07-30T05:16:29;99661.26;;;21.98;40.61
51053;BME280;37093;37.716;-122.060;2022-07-30T05:18:57;99667.57;;;22.12;40.33
51053;BME280;37093;37.716;-122.060;2022-07-30T05:21:25;99669.86;;;21.68;40.00
51053;BME280;37093;37.716;-122.060;2022-07-30T05:23:54;99667.89;;;22.20;39.76
51053;BME280;37093;37.716;-122.060;2022-07-30T05:26:22;99661.05;;;22.39;39.30
51053;BME280;37093;37.716;-122.060;2022-07-30T05:28:51;99663.22;;;22.21;39.31
51053;BME280;37093;37.716;-122.060;2022-07-30T05:31:19;99662.41;;;22.71;39.76
51053;BME280;37093;37.716;-122.060;2022-07-30T05:33:48;99659.50;;;22.28;39.47
51053;BME280;37093;37.716;-122.060;2022-07-30T05:36:16;99657.32;;;22.09;39.94
51053;BME280;37093;37.716;-122.060;2022-07-30T05:38:45;99659.36;;;22.25;39.60
51053;BME280;37093;37.716;-122.060;2022-07-30T05:41:13;99662.85;;;22.05;40.13
51053;BME280;37093;37.716;-122.060;2022-07-30T05:43:42;99661.21;;;21.99;40.32
51053;BME280;37093;37.716;-122.060;2022-07-30T05:46:10;99660.23;;;21.69;40.33
51053;BME280;37093;37.716;-122.060;2022-07-30T05:48:39;99654.65;;;22.22;40.10
51053;BME280;37093;37.716;-122.060;2022-07-30T05:51:07;99654.77;;;22.23;40.17
51053;BME280;37093;37.716;-122.060;2022-07-30T05:53:36;99655.98;;;21.96;40.78
51053;BME280;37093;37.716;-122.060;2022-07-30T05:56:05;99653.14;;;21.77;41.06
51053;BME280;37093;37.716;-122.060;2022-07-30T05:58:35;99653.32;;;21.94;40.76
51053;BME280;37093;37.716;-122.060;2022-07-30T06:01:03;99650.09;;;22.09;40.53
51053;BME280;37093;37.716;-122.060;2022-07-30T06:03:32;99652.36;;;22.03;40.10
51053;BME280;37093;37.716;-122.060;2022-07-30T06:06:02;99653.58;;;21.91;40.44
51053;BME280;37093;37.716;-122.060;2022-07-30T06:08:32;99650.18;;;22.06;39.90
51053;BME280;37093;37.716;-122.060;2022-07-30T06:11:00;99649.30;;;22.17;39.88
51053;BME280;37093;37.716;-122.060;2022-07-30T06:13:28;99647.78;;;22.16;39.83
51053;BME280;37093;37.716;-122.060;2022-07-30T06:15:57;99647.86;;;22.06;40.47
51053;BME280;37093;37.716;-122.060;2022-07-30T06:18:25;99650.43;;;22.23;40.42
51053;BME280;37093;37.716;-122.060;2022-07-30T06:20:54;99649.50;;;21.95;40.27
51053;BME280;37093;37.716;-122.060;2022-07-30T06:23:24;99651.19;;;22.35;39.95
51053;BME280;37093;37.716;-122.060;2022-07-30T06:25:53;99655.47;;;22.18;39.82
51053;BME280;37093;37.716;-122.060;2022-07-30T06:28:21;99657.42;;;22.15;39.92
51053;BME280;37093;37.716;-122.060;2022-07-30T06:30:50;99661.50;;;22.10;39.83
51053;BME280;37093;37.716;-122.060;2022-07-30T06:33:18;99660.40;;;22.33;39.93
51053;BME280;37093;37.716;-122.060;2022-07-30T06:35:47;99654.57;;;22.10;39.99
51053;BME280;37093;37.716;-122.060;2022-07-30T06:38:15;99654.40;;;22.15;39.82
51053;BME280;37093;37.716;-122.060;2022-07-30T06:40:44;99650.22;;;22.13;39.86
51053;BME280;37093;37.716;-122.060;2022-07-30T06:43:12;99649.57;;;22.14;39.73
51053;BME280;37093;37.716;-122.060;2022-07-30T06:45:41;99654.87;;;21.97;40.50
51053;BME280;37093;37.716;-122.060;2022-07-30T06:48:09;99658.24;;;22.15;40.44
51053;BME280;37093;37.716;-122.060;2022-07-30T06:50:38;99659.43;;;22.07;41.06
51053;BME280;37093;37.716;-122.060;2022-07-30T06:53:06;99659.83;;;21.92;41.26
51053;BME280;37093;37.716;-122.060;2022-07-30T06:55:35;99658.99;;;21.91;41.01
51053;BME280;37093;37.716;-122.060;2022-07-30T06:58:03;99657.82;;;21.56;40.94
51053;BME280;37093;37.716;-122.060;2022-07-30T07:01:13;99660.54;;;20.95;40.59
51053;BME280;37093;37.716;-122.060;2022-07-30T07:03:42;99657.57;;;21.50;39.58
51053;BME280;37093;37.716;-122.060;2022-07-30T07:06:10;99660.53;;;22.92;37.94
51053;BME280;37093;37.716;-122.060;2022-07-30T07:08:39;99657.95;;;23.54;38.44
51053;BME280;37093;37.716;-122.060;2022-07-30T07:11:07;99656.37;;;22.84;39.13
51053;BME280;37093;37.716;-122.060;2022-07-30T07:13:36;99657.48;;;22.60;39.56
51053;BME280;37093;37.716;-122.060;2022-07-30T07:16:05;99656.71;;;22.24;40.34
51053;BME280;37093;37.716;-122.060;2022-07-30T07:18:33;99658.41;;;22.08;40.68
51053;BME280;37093;37.716;-122.060;2022-07-30T07:21:01;99658.02;;;21.90;41.08
51053;BME280;37093;37.716;-122.060;2022-07-30T07:23:30;99661.38;;;21.66;41.56
51053;BME280;37093;37.716;-122.060;2022-07-30T07:25:59;99661.33;;;21.82;41.63
51053;BME280;37093;37.716;-122.060;2022-07-30T07:28:29;99668.74;;;21.89;41.50
51053;BME280;37093;37.716;-122.060;2022-07-30T07:30:57;99669.47;;;21.70;41.92
51053;BME280;37093;37.716;-122.060;2022-07-30T07:33:25;99667.62;;;21.45;42.35
51053;BME280;37093;37.716;-122.060;2022-07-30T07:35:54;99666.62;;;21.23;42.82
51053;BME280;37093;37.716;-122.060;2022-07-30T07:38:23;99666.42;;;21.26;42.48
51053;BME280;37093;37.716;-122.060;2022-07-30T07:40:51;99667.02;;;21.83;42.28
51053;BME280;37093;37.716;-122.060;2022-07-30T07:43:19;99670.06;;;21.32;42.44
51053;BME280;37093;37.716;-122.060;2022-07-30T07:45:48;99669.50;;;21.44;42.79
51053;BME280;37093;37.716;-122.060;2022-07-30T07:48:17;99664.84;;;21.13;43.10
51053;BME280;37093;37.716;-122.060;2022-07-30T07:50:46;99666.26;;;21.39;42.64
51053;BME280;37093;37.716;-122.060;2022-07-30T07:53:14;99662.64;;;21.68;42.31
51053;BME280;37093;37.716;-122.060;2022-07-30T07:55:43;99662.16;;;21.40;42.35
51053;BME280;37093;37.716;-122.060;2022-07-30T07:58:11;99662.27;;;21.66;42.02
51053;BME280;37093;37.716;-122.060;2022-07-30T08:00:40;99662.90;;;21.50;41.86
51053;BME280;37093;37.716;-122.060;2022-07-30T08:03:08;99665.54;;;21.80;42.17
51053;BME280;37093;37.716;-122.060;2022-07-30T08:05:37;99664.89;;;21.51;42.81
51053;BME280;37093;37.716;-122.060;2022-07-30T08:08:05;99660.32;;;21.59;42.64
51053;BME280;37093;37.716;-122.060;2022-07-30T08:10:34;99659.73;;;21.53;42.56
51053;BME280;37093;37.716;-122.060;2022-07-30T08:13:02;99658.55;;;21.57;42.52
51053;BME280;37093;37.716;-122.060;2022-07-30T08:15:31;99660.86;;;21.47;42.46
51053;BME280;37093;37.716;-122.060;2022-07-30T08:17:59;99659.91;;;21.72;42.18
51053;BME280;37093;37.716;-122.060;2022-07-30T08:20:28;99653.83;;;21.81;42.50
51053;BME280;37093;37.716;-122.060;2022-07-30T08:22:57;99657.79;;;21.97;42.06
51053;BME280;37093;37.716;-122.060;2022-07-30T08:25:26;99661.08;;;21.60;42.10
51053;BME280;37093;37.716;-122.060;2022-07-30T08:27:55;99661.68;;;21.75;41.85
51053;BME280;37093;37.716;-122.060;2022-07-30T08:30:23;99668.34;;;21.47;42.33
51053;BME280;37093;37.716;-122.060;2022-07-30T08:32:52;99666.56;;;21.66;42.35
51053;BME280;37093;37.716;-122.060;2022-07-30T08:35:21;99664.55;;;21.37;42.29
51053;BME280;37093;37.716;-122.060;2022-07-30T08:37:49;99660.00;;;21.74;42.12
51053;BME280;37093;37.716;-122.060;2022-07-30T08:40:19;99656.16;;;21.66;42.85
51053;BME280;37093;37.716;-122.060;2022-07-30T08:42:47;99657.07;;;21.52;43.24
51053;BME280;37093;37.716;-122.060;2022-07-30T08:45:17;99661.42;;;21.28;43.15
51053;BME280;37093;37.716;-122.060;2022-07-30T08:47:45;99663.87;;;21.28;43.27
51053;BME280;37093;37.716;-122.060;2022-07-30T08:50:15;99658.38;;;20.94;42.97
51053;BME280;37093;37.716;-122.060;2022-07-30T08:52:44;99656.41;;;21.41;42.93
51053;BME280;37093;37.716;-122.060;2022-07-30T08:55:13;99656.13;;;21.28;43.50
51053;BME280;37093;37.716;-122.060;2022-07-30T08:57:42;99654.24;;;21.49;43.20
51053;BME280;37093;37.716;-122.060;2022-07-30T09:00:12;99650.08;;;21.85;42.96
51053;BME280;37093;37.716;-122.060;2022-07-30T09:02:40;99648.41;;;21.68;43.09
51053;BME280;37093;37.716;-122.060;2022-07-30T09:05:09;99638.78;;;21.54;42.65
51053;BME280;37093;37.716;-122.060;2022-07-30T09:07:38;99643.89;;;21.84;42.90
51053;BME280;37093;37.716;-122.060;2022-07-30T09:10:10;99644.71;;;21.45;43.24
51053;BME280;37093;37.716;-122.060;2022-07-30T09:12:40;99645.30;;;21.54;42.66
51053;BME280;37093;37.716;-122.060;2022-07-30T09:15:10;99643.11;;;21.61;42.78
51053;BME280;37093;37.716;-122.060;2022-07-30T09:20:03;99639.06;;;21.97;42.93
51053;BME280;37093;37.716;-122.060;2022-07-30T09:22:42;99638.36;;;21.63;42.71
51053;BME280;37093;37.716;-122.060;2022-07-30T09:25:10;99638.11;;;21.54;42.48
51053;BME280;37093;37.716;-122.060;2022-07-30T09:28:44;99646.66;;;21.68;42.47
51053;BME280;37093;37.716;-122.060;2022-07-30T09:31:13;99646.85;;;21.68;42.38
51053;BME280;37093;37.716;-122.060;2022-07-30T09:33:44;99643.60;;;21.65;42.71
51053;BME280;37093;37.716;-122.060;2022-07-30T09:36:14;99637.84;;;21.73;42.78
51053;BME280;37093;37.716;-122.060;2022-07-30T09:38:45;99635.03;;;21.75;42.79
51053;BME280;37093;37.716;-122.060;2022-07-30T09:41:15;99638.78;;;21.82;42.99
51053;BME280;37093;37.716;-122.060;2022-07-30T09:43:46;99646.54;;;21.60;43.55
51053;BME280;37093;37.716;-122.060;2022-07-30T09:46:16;99643.28;;;21.92;43.26
51053;BME280;37093;37.716;-122.060;2022-07-30T09:48:44;99641.69;;;21.51;43.28
51053;BME280;37093;37.716;-122.060;2022-07-30T09:51:12;99646.25;;;21.61;43.20
51053;BME280;37093;37.716;-122.060;2022-07-30T09:53:54;99646.82;;;21.86;42.85
51053;BME280;37093;37.716;-122.060;2022-07-30T10:00:45;99650.79;;;21.90;43.34
51053;BME280;37093;37.716;-122.060;2022-07-30T10:05:28;99649.46;;;22.30;41.96
51053;BME280;37093;37.716;-122.060;2022-07-30T10:07:58;99651.18;;;21.78;41.61
51053;BME280;37093;37.716;-122.060;2022-07-30T10:10:29;99653.48;;;22.23;41.75
51053;BME280;37093;37.716;-122.060;2022-07-30T10:12:59;99653.37;;;22.12;42.01
51053;BME280;37093;37.716;-122.060;2022-07-30T10:15:30;99652.94;;;21.90;41.87
51053;BME280;37093;37.716;-122.060;2022-07-30T10:18:00;99652.17;;;22.08;42.10
51053;BME280;37093;37.716;-122.060;2022-07-30T10:20:29;99647.17;;;21.47;42.25
51053;BME280;37093;37.716;-122.060;2022-07-30T10:22:58;99646.44;;;21.98;42.12
51053;BME280;37093;37.716;-122.060;2022-07-30T10:25:28;99643.39;;;21.97;42.49
51053;BME280;37093;37.716;-122.060;2022-07-30T10:27:56;99646.27;;;21.39;42.80
51053;BME280;37093;37.716;-122.060;2022-07-30T10:30:29;99652.33;;;21.58;43.54
51053;BME280;37093;37.716;-122.060;2022-07-30T10:32:58;99647.27;;;21.46;43.31
51053;BME280;37093;37.716;-122.060;2022-07-30T10:35:28;99644.76;;;21.63;43.65
51053;BME280;37093;37.716;-122.060;2022-07-30T10:37:57;99642.86;;;21.65;43.69
51053;BME280;37093;37.716;-122.060;2022-07-30T10:40:32;99635.78;;;21.67;43.66
51053;BME280;37093;37.716;-122.060;2022-07-30T10:45:17;99640.96;;;21.41;44.36
51053;BME280;37093;37.716;-122.060;2022-07-30T10:47:47;99633.13;;;21.54;43.96
51053;BME280;37093;37.716;-122.060;2022-07-30T10:50:18;99635.01;;;21.48;43.70
51053;BME280;37093;37.716;-122.060;2022-07-30T10:52:49;99636.44;;;21.75;43.66
51053;BME280;37093;37.716;-122.060;2022-07-30T10:55:20;99644.67;;;21.25;44.38
51053;BME280;37093;37.716;-122.060;2022-07-30T11:01:03;99645.77;;;21.81;44.77
51053;BME280;37093;37.716;-122.060;2022-07-30T11:03:31;99638.69;;;21.46;44.33
51053;BME280;37093;37.716;-122.060;2022-07-30T11:06:25;99636.07;;;21.78;43.71
51053;BME280;37093;37.716;-122.060;2022-07-30T11:08:54;99635.60;;;21.81;43.61
51053;BME280;37093;37.716;-122.060;2022-07-30T11:20:12;99642.09;;;21.25;45.28
51053;BME280;37093;37.716;-122.060;2022-07-30T11:22:40;99647.24;;;20.11;44.21
51053;BME280;37093;37.716;-122.060;2022-07-30T11:25:09;99641.79;;;21.76;42.62
51053;BME280;37093;37.716;-122.060;2022-07-30T11:28:05;99637.68;;;22.00;42.78
51053;BME280;37093;37.716;-122.060;2022-07-30T11:30:35;99637.23;;;21.28;43.46
51053;BME280;37093;37.716;-122.060;2022-07-30T11:36:20;99639.03;;;22.00;43.66
51053;BME280;37093;37.716;-122.060;2022-07-30T11:38:52;99634.22;;;21.72;43.31
51053;BME280;37093;37.716;-122.060;2022-07-30T11:41:20;99630.96;;;21.92;42.99
51053;BME280;37093;37.716;-122.060;2022-07-30T11:43:53;99630.37;;;21.86;43.09
51053;BME280;37093;37.716;-122.060;2022-07-30T11:46:52;99630.39;;;21.88;43.09
51053;BME280;37093;37.716;-122.060;2022-07-30T11:49:20;99634.57;;;21.75;43.43
51053;BME280;37093;37.716;-122.060;2022-07-30T11:51:49;99635.35;;;21.69;43.39
51053;BME280;37093;37.716;-122.060;2022-07-30T11:54:17;99636.97;;;21.55;43.34
51053;BME280;37093;37.716;-122.060;2022-07-30T11:59:01;99635.00;;;21.58;43.56
51053;BME280;37093;37.716;-122.060;2022-07-30T12:01:30;99638.76;;;21.22;43.59
51053;BME280;37093;37.716;-122.060;2022-07-30T12:04:02;99637.70;;;21.57;43.17
51053;BME280;37093;37.716;-122.060;2022-07-30T12:06:30;99634.63;;;21.61;43.13
51053;BME280;37093;37.716;-122.060;2022-07-30T12:08:59;99635.39;;;21.67;42.80
51053;BME280;37093;37.716;-122.060;2022-07-30T12:11:32;99638.41;;;21.38;43.62
51053;BME280;37093;37.716;-122.060;2022-07-30T12:14:02;99641.30;;;21.16;43.83
51053;BME280;37093;37.716;-122.060;2022-07-30T12:16:31;99644.55;;;21.24;43.91
51053;BME280;37093;37.716;-122.060;2022-07-30T12:19:02;99642.46;;;21.08;44.45
51053;BME280;37093;37.716;-122.060;2022-07-30T12:21:31;99640.68;;;21.25;44.17
51053;BME280;37093;37.716;-122.060;2022-07-30T12:24:00;99645.66;;;21.26;44.12
51053;BME280;37093;37.716;-122.060;2022-07-30T12:26:31;99648.23;;;21.05;43.79
51053;BME280;37093;37.716;-122.060;2022-07-30T12:29:03;99647.37;;;21.40;43.71
51053;BME280;37093;37.716;-122.060;2022-07-30T12:31:33;99653.11;;;21.06;43.74
51053;BME280;37093;37.716;-122.060;2022-07-30T12:34:02;99659.13;;;21.23;43.74
51053;BME280;37093;37.716;-122.060;2022-07-30T12:36:33;99657.49;;;21.25;43.69
51053;BME280;37093;37.716;-122.060;2022-07-30T12:39:03;99657.10;;;21.27;43.78
51053;BME280;37093;37.716;-122.060;2022-07-30T12:43:47;99657.32;;;21.58;44.06
51053;BME280;37093;37.716;-122.060;2022-07-30T12:46:17;99659.99;;;21.43;43.44
51053;BME280;37093;37.716;-122.060;2022-07-30T12:51:05;99669.29;;;21.90;43.42
51053;BME280;37093;37.716;-122.060;2022-07-30T12:53:33;99670.95;;;21.14;43.65
51053;BME280;37093;37.716;-122.060;2022-07-30T12:57:07;99674.47;;;21.12;43.41
51053;BME280;37093;37.716;-122.060;2022-07-30T12:59:35;99675.33;;;21.50;43.16
51053;BME280;37093;37.716;-122.060;2022-07-30T13:02:03;99681.07;;;21.51;42.96
51053;BME280;37093;37.716;-122.060;2022-07-30T13:04:32;99685.80;;;21.34;43.05
51053;BME280;37093;37.716;-122.060;2022-07-30T13:09:18;99683.84;;;21.95;43.56
51053;BME280;37093;37.716;-122.060;2022-07-30T13:11:47;99685.69;;;21.54;43.06
51053;BME280;37093;37.716;-122.060;2022-07-30T13:14:15;99688.12;;;21.58;43.22
51053;BME280;37093;37.716;-122.060;2022-07-30T13:16:44;99695.02;;;21.63;42.95
51053;BME280;37093;37.716;-122.060;2022-07-30T13:19:12;99699.27;;;21.45;42.95
51053;BME280;37093;37.716;-122.060;2022-07-30T13:21:41;99700.36;;;21.94;42.89
51053;BME280;37093;37.716;-122.060;2022-07-30T13:24:09;99700.43;;;21.70;42.99